sensor_id;sensor_type;location;lat;lon;timestamp;P1;durP1;ratioP1;P2;durP2;ratioP2
17997;SDS011;9124;48.144;17.098;2022-10-16T00:01:47;26.83;;;16.73;;
17997;SDS011;9124;48.144;17.098;2022-10-16T00:05:24;23.23;;;16.80;;
17997;SDS011;9124;48.144;17.098;2022-10-16T00:09:00;22.38;;;16.23;;
17997;SDS011;9124;48.144;17.098;2022-10-16T00:12:37;20.50;;;15.13;;
17997;SDS011;9124;48.144;17.098;2022-10-16T00:16:13;23.05;;;15.45;;
17997;SDS011;9124;48.144;17.098;2022-10-16T00:19:50;22.60;;;14.85;;
17997;SDS011;9124;48.144;17.098;2022-10-16T00:23:27;26.35;;;17.40;;
17997;SDS011;9124;48.144;17.098;2022-10-16T00:27:03;23.75;;;17.40;;
17997;SDS011;9124;48.144;17.098;2022-10-16T00:30:39;25.75;;;15.70;;
17997;SDS011;9124;48.144;17.098;2022-10-16T00:34:15;22.30;;;15.90;;
17997;SDS011;9124;48.144;17.098;2022-10-16T00:37:52;18.60;;;14.40;;
17997;SDS011;9124;48.144;17.098;2022-10-16T00:41:28;20.20;;;14.40;;
17997;SDS011;9124;48.144;17.098;2022-10-16T00:45:05;19.88;;;14.32;;
17997;SDS011;9124;48.144;17.098;2022-10-16T00:48:45;21.88;;;14.27;;
17997;SDS011;9124;48.144;17.098;2022-10-16T00:52:46;19.92;;;14.18;;
17997;SDS011;9124;48.144;17.098;2022-10-16T00:56:23;19.02;;;14.02;;
17997;SDS011;9124;48.144;17.098;2022-10-16T01:00:00;17.67;;;14.13;;
17997;SDS011;9124;48.144;17.098;2022-10-16T01:03:39;17.02;;;14.07;;
17997;SDS011;9124;48.144;17.098;2022-10-16T01:11:32;18.38;;;13.82;;
17997;SDS011;9124;48.144;17.098;2022-10-16T01:15:20;22.15;;;14.13;;
17997;SDS011;9124;48.144;17.098;2022-10-16T01:19:40;19.98;;;13.98;;
17997;SDS011;9124;48.144;17.098;2022-10-16T01:27:34;17.00;;;13.82;;
17997;SDS011;9124;48.144;17.098;2022-10-16T01:31:16;20.45;;;14.82;;
17997;SDS011;9124;48.144;17.098;2022-10-16T01:39:00;19.25;;;15.88;;
17997;SDS011;9124;48.144;17.098;2022-10-16T01:42:42;18.48;;;15.20;;
17997;SDS011;9124;48.144;17.098;2022-10-16T01:46:22;21.63;;;15.05;;
17997;SDS011;9124;48.144;17.098;2022-10-16T01:49:59;16.77;;;14.02;;
17997;SDS011;9124;48.144;17.098;2022-10-16T01:53:38;21.08;;;14.27;;
17997;SDS011;9124;48.144;17.098;2022-10-16T01:57:15;18.70;;;12.77;;
17997;SDS011;9124;48.144;17.098;2022-10-16T02:00:55;15.00;;;11.85;;
17997;SDS011;9124;48.144;17.098;2022-10-16T02:05:10;13.15;;;11.75;;
17997;SDS011;9124;48.144;17.098;2022-10-16T02:08:45;11.57;;;10.40;;
17997;SDS011;9124;48.144;17.098;2022-10-16T02:12:29;13.18;;;11.50;;
17997;SDS011;9124;48.144;17.098;2022-10-16T02:16:08;15.93;;;11.10;;
17997;SDS011;9124;48.144;17.098;2022-10-16T02:19:46;13.60;;;11.48;;
17997;SDS011;9124;48.144;17.098;2022-10-16T02:31:31;16.60;;;12.70;;
17997;SDS011;9124;48.144;17.098;2022-10-16T02:35:11;13.70;;;12.25;;
17997;SDS011;9124;48.144;17.098;2022-10-16T02:38:49;17.85;;;12.93;;
17997;SDS011;9124;48.144;17.098;2022-10-16T02:42:31;20.13;;;14.27;;
17997;SDS011;9124;48.144;17.098;2022-10-16T02:46:10;22.58;;;14.45;;
17997;SDS011;9124;48.144;17.098;2022-10-16T02:49:46;17.80;;;13.52;;
17997;SDS011;9124;48.144;17.098;2022-10-16T02:53:22;17.38;;;13.68;;
17997;SDS011;9124;48.144;17.098;2022-10-16T02:56:59;20.50;;;13.80;;
17997;SDS011;9124;48.144;17.098;2022-10-16T03:00:35;21.02;;;13.40;;
17997;SDS011;9124;48.144;17.098;2022-10-16T03:04:11;17.70;;;13.25;;
17997;SDS011;9124;48.144;17.098;2022-10-16T03:07:47;19.50;;;13.13;;
17997;SDS011;9124;48.144;17.098;2022-10-16T03:11:24;18.63;;;13.27;;
17997;SDS011;9124;48.144;17.098;2022-10-16T03:15:00;18.33;;;14.32;;
17997;SDS011;9124;48.144;17.098;2022-10-16T03:18:37;16.38;;;14.30;;
17997;SDS011;9124;48.144;17.098;2022-10-16T03:22:13;21.52;;;15.55;;
17997;SDS011;9124;48.144;17.098;2022-10-16T03:25:50;22.27;;;14.95;;
17997;SDS011;9124;48.144;17.098;2022-10-16T03:29:26;24.60;;;17.08;;
17997;SDS011;9124;48.144;17.098;2022-10-16T03:33:04;20.33;;;15.73;;
17997;SDS011;9124;48.144;17.098;2022-10-16T03:36:41;23.50;;;15.48;;
17997;SDS011;9124;48.144;17.098;2022-10-16T03:40:18;17.88;;;14.05;;
17997;SDS011;9124;48.144;17.098;2022-10-16T03:43:54;14.75;;;12.55;;
17997;SDS011;9124;48.144;17.098;2022-10-16T03:47:30;15.65;;;12.50;;
17997;SDS011;9124;48.144;17.098;2022-10-16T03:51:08;12.93;;;11.55;;
17997;SDS011;9124;48.144;17.098;2022-10-16T03:54:44;14.48;;;11.35;;
17997;SDS011;9124;48.144;17.098;2022-10-16T03:58:21;14.52;;;11.63;;
17997;SDS011;9124;48.144;17.098;2022-10-16T04:01:57;15.95;;;11.77;;
17997;SDS011;9124;48.144;17.098;2022-10-16T04:05:34;17.25;;;11.32;;
17997;SDS011;9124;48.144;17.098;2022-10-16T04:09:10;15.13;;;11.90;;
17997;SDS011;9124;48.144;17.098;2022-10-16T04:12:46;15.07;;;12.48;;
17997;SDS011;9124;48.144;17.098;2022-10-16T04:16:22;13.70;;;11.70;;
17997;SDS011;9124;48.144;17.098;2022-10-16T04:19:59;15.40;;;11.88;;
17997;SDS011;9124;48.144;17.098;2022-10-16T04:23:35;13.23;;;11.10;;
17997;SDS011;9124;48.144;17.098;2022-10-16T04:27:11;12.77;;;11.40;;
17997;SDS011;9124;48.144;17.098;2022-10-16T04:30:48;12.27;;;10.93;;
17997;SDS011;9124;48.144;17.098;2022-10-16T04:34:24;13.50;;;11.38;;
17997;SDS011;9124;48.144;17.098;2022-10-16T04:38:00;16.20;;;11.60;;
17997;SDS011;9124;48.144;17.098;2022-10-16T04:41:36;13.75;;;11.05;;
17997;SDS011;9124;48.144;17.098;2022-10-16T04:45:13;15.48;;;10.80;;
17997;SDS011;9124;48.144;17.098;2022-10-16T04:48:49;11.43;;;10.32;;
17997;SDS011;9124;48.144;17.098;2022-10-16T04:52:25;12.23;;;10.98;;
17997;SDS011;9124;48.144;17.098;2022-10-16T04:56:02;12.10;;;10.85;;
17997;SDS011;9124;48.144;17.098;2022-10-16T04:59:38;13.93;;;11.30;;
17997;SDS011;9124;48.144;17.098;2022-10-16T05:03:14;11.95;;;10.82;;
17997;SDS011;9124;48.144;17.098;2022-10-16T05:06:51;12.52;;;11.25;;
17997;SDS011;9124;48.144;17.098;2022-10-16T05:10:27;12.10;;;10.80;;
17997;SDS011;9124;48.144;17.098;2022-10-16T05:14:04;21.30;;;12.05;;
17997;SDS011;9124;48.144;17.098;2022-10-16T05:17:40;15.50;;;11.45;;
17997;SDS011;9124;48.144;17.098;2022-10-16T05:21:16;12.63;;;11.32;;
17997;SDS011;9124;48.144;17.098;2022-10-16T05:24:53;17.48;;;12.30;;
17997;SDS011;9124;48.144;17.098;2022-10-16T05:28:30;18.15;;;12.18;;
17997;SDS011;9124;48.144;17.098;2022-10-16T05:32:06;16.10;;;11.77;;
17997;SDS011;9124;48.144;17.098;2022-10-16T05:35:44;16.30;;;11.65;;
17997;SDS011;9124;48.144;17.098;2022-10-16T05:39:20;13.18;;;11.88;;
17997;SDS011;9124;48.144;17.098;2022-10-16T05:42:57;16.48;;;11.23;;
17997;SDS011;9124;48.144;17.098;2022-10-16T05:46:33;16.63;;;11.10;;
17997;SDS011;9124;48.144;17.098;2022-10-16T05:50:09;15.80;;;10.57;;
17997;SDS011;9124;48.144;17.098;2022-10-16T05:53:45;12.45;;;11.32;;
17997;SDS011;9124;48.144;17.098;2022-10-16T05:57:22;11.65;;;10.55;;
17997;SDS011;9124;48.144;17.098;2022-10-16T06:01:05;12.48;;;11.20;;
17997;SDS011;9124;48.144;17.098;2022-10-16T06:04:44;14.52;;;10.65;;
17997;SDS011;9124;48.144;17.098;2022-10-16T06:08:21;15.65;;;10.38;;
17997;SDS011;9124;48.144;17.098;2022-10-16T06:11:58;11.40;;;10.27;;
17997;SDS011;9124;48.144;17.098;2022-10-16T06:15:34;10.40;;;9.38;;
17997;SDS011;9124;48.144;17.098;2022-10-16T06:19:11;10.45;;;9.38;;
17997;SDS011;9124;48.144;17.098;2022-10-16T06:22:47;9.13;;;8.32;;
17997;SDS011;9124;48.144;17.098;2022-10-16T06:26:25;9.90;;;8.13;;
17997;SDS011;9124;48.144;17.098;2022-10-16T06:30:03;10.40;;;9.30;;
17997;SDS011;9124;48.144;17.098;2022-10-16T06:33:39;9.40;;;8.50;;
17997;SDS011;9124;48.144;17.098;2022-10-16T06:37:16;9.77;;;8.35;;
17997;SDS011;9124;48.144;17.098;2022-10-16T06:40:53;9.63;;;8.73;;
17997;SDS011;9124;48.144;17.098;2022-10-16T06:44:29;9.68;;;8.75;;
17997;SDS011;9124;48.144;17.098;2022-10-16T06:48:05;10.88;;;9.07;;
17997;SDS011;9124;48.144;17.098;2022-10-16T06:51:42;10.88;;;7.90;;
17997;SDS011;9124;48.144;17.098;2022-10-16T06:55:18;11.43;;;8.60;;
17997;SDS011;9124;48.144;17.098;2022-10-16T06:58:55;12.90;;;8.02;;
17997;SDS011;9124;48.144;17.098;2022-10-16T07:02:31;8.93;;;8.13;;
17997;SDS011;9124;48.144;17.098;2022-10-16T07:06:08;8.90;;;7.97;;
17997;SDS011;9124;48.144;17.098;2022-10-16T07:09:45;9.05;;;8.25;;
17997;SDS011;9124;48.144;17.098;2022-10-16T07:13:22;12.57;;;8.00;;
17997;SDS011;9124;48.144;17.098;2022-10-16T07:16:58;8.45;;;7.70;;
17997;SDS011;9124;48.144;17.098;2022-10-16T07:20:35;8.40;;;7.70;;
17997;SDS011;9124;48.144;17.098;2022-10-16T07:24:13;9.40;;;8.50;;
17997;SDS011;9124;48.144;17.098;2022-10-16T07:27:51;8.77;;;7.97;;
17997;SDS011;9124;48.144;17.098;2022-10-16T07:31:27;9.70;;;8.23;;
17997;SDS011;9124;48.144;17.098;2022-10-16T07:35:04;8.10;;;7.35;;
17997;SDS011;9124;48.144;17.098;2022-10-16T07:38:41;9.55;;;8.50;;
17997;SDS011;9124;48.144;17.098;2022-10-16T07:42:18;9.80;;;8.52;;
17997;SDS011;9124;48.144;17.098;2022-10-16T07:45:55;8.40;;;7.60;;
17997;SDS011;9124;48.144;17.098;2022-10-16T07:49:32;10.52;;;8.02;;
17997;SDS011;9124;48.144;17.098;2022-10-16T07:53:08;9.07;;;8.27;;
17997;SDS011;9124;48.144;17.098;2022-10-16T07:56:46;9.23;;;8.38;;
17997;SDS011;9124;48.144;17.098;2022-10-16T08:00:22;8.50;;;7.70;;
17997;SDS011;9124;48.144;17.098;2022-10-16T08:03:59;8.75;;;8.02;;
17997;SDS011;9124;48.144;17.098;2022-10-16T08:07:35;8.80;;;8.10;;
17997;SDS011;9124;48.144;17.098;2022-10-16T08:11:11;8.98;;;8.27;;
17997;SDS011;9124;48.144;17.098;2022-10-16T08:14:47;7.65;;;6.90;;
17997;SDS011;9124;48.144;17.098;2022-10-16T08:18:24;8.63;;;7.93;;
17997;SDS011;9124;48.144;17.098;2022-10-16T08:22:01;8.90;;;7.95;;
17997;SDS011;9124;48.144;17.098;2022-10-16T08:25:37;8.02;;;7.43;;
17997;SDS011;9124;48.144;17.098;2022-10-16T08:29:14;8.90;;;8.02;;
17997;SDS011;9124;48.144;17.098;2022-10-16T08:32:50;8.45;;;7.75;;
17997;SDS011;9124;48.144;17.098;2022-10-16T08:36:27;8.57;;;7.88;;
17997;SDS011;9124;48.144;17.098;2022-10-16T08:40:05;8.60;;;8.00;;
17997;SDS011;9124;48.144;17.098;2022-10-16T08:43:55;8.73;;;7.90;;
17997;SDS011;9124;48.144;17.098;2022-10-16T08:51:53;11.25;;;10.35;;
17997;SDS011;9124;48.144;17.098;2022-10-16T08:59:38;12.43;;;11.25;;
17997;SDS011;9124;48.144;17.098;2022-10-16T09:11:26;10.75;;;9.85;;
17997;SDS011;9124;48.144;17.098;2022-10-16T09:19:19;10.40;;;9.65;;
17997;SDS011;9124;48.144;17.098;2022-10-16T09:26:40;11.48;;;10.68;;
17997;SDS011;9124;48.144;17.098;2022-10-16T09:30:18;10.35;;;9.52;;
17997;SDS011;9124;48.144;17.098;2022-10-16T09:33:59;12.25;;;11.35;;
17997;SDS011;9124;48.144;17.098;2022-10-16T09:37:42;11.05;;;10.35;;
17997;SDS011;9124;48.144;17.098;2022-10-16T09:41:21;11.75;;;10.77;;
17997;SDS011;9124;48.144;17.098;2022-10-16T09:44:59;12.82;;;11.73;;
17997;SDS011;9124;48.144;17.098;2022-10-16T09:48:37;12.48;;;11.48;;
17997;SDS011;9124;48.144;17.098;2022-10-16T09:52:14;14.10;;;12.82;;
17997;SDS011;9124;48.144;17.098;2022-10-16T09:55:53;14.15;;;12.93;;
17997;SDS011;9124;48.144;17.098;2022-10-16T09:59:30;12.95;;;11.95;;
17997;SDS011;9124;48.144;17.098;2022-10-16T10:03:11;13.60;;;12.32;;
17997;SDS011;9124;48.144;17.098;2022-10-16T10:10:27;13.45;;;12.38;;
17997;SDS011;9124;48.144;17.098;2022-10-16T10:18:25;13.93;;;12.68;;
17997;SDS011;9124;48.144;17.098;2022-10-16T10:22:12;13.63;;;12.27;;
17997;SDS011;9124;48.144;17.098;2022-10-16T10:26:16;12.75;;;11.65;;
17997;SDS011;9124;48.144;17.098;2022-10-16T10:29:59;14.60;;;13.20;;
17997;SDS011;9124;48.144;17.098;2022-10-16T10:45:26;14.88;;;13.52;;
17997;SDS011;9124;48.144;17.098;2022-10-16T10:57:21;15.52;;;13.93;;
17997;SDS011;9124;48.144;17.098;2022-10-16T11:05:21;16.98;;;15.18;;
17997;SDS011;9124;48.144;17.098;2022-10-16T11:09:16;17.13;;;15.52;;
17997;SDS011;9124;48.144;17.098;2022-10-16T11:12:59;22.55;;;17.00;;
17997;SDS011;9124;48.144;17.098;2022-10-16T11:16:57;18.98;;;16.92;;
17997;SDS011;9124;48.144;17.098;2022-10-16T11:28:50;30.83;;;18.10;;
17997;SDS011;9124;48.144;17.098;2022-10-16T11:32:35;23.45;;;17.95;;
17997;SDS011;9124;48.144;17.098;2022-10-16T11:36:52;20.55;;;16.58;;
17997;SDS011;9124;48.144;17.098;2022-10-16T11:40:38;22.83;;;17.88;;
17997;SDS011;9124;48.144;17.098;2022-10-16T11:44:33;24.65;;;17.83;;
17997;SDS011;9124;48.144;17.098;2022-10-16T11:48:33;22.50;;;17.60;;
17997;SDS011;9124;48.144;17.098;2022-10-16T11:52:23;19.60;;;17.02;;
17997;SDS011;9124;48.144;17.098;2022-10-16T11:56:21;23.70;;;17.30;;
17997;SDS011;9124;48.144;17.098;2022-10-16T11:59:59;31.38;;;23.05;;
17997;SDS011;9124;48.144;17.098;2022-10-16T12:07:35;22.85;;;18.20;;
17997;SDS011;9124;48.144;17.098;2022-10-16T12:11:23;21.45;;;17.63;;
17997;SDS011;9124;48.144;17.098;2022-10-16T12:15:34;21.70;;;17.70;;
17997;SDS011;9124;48.144;17.098;2022-10-16T12:19:11;24.08;;;17.80;;
17997;SDS011;9124;48.144;17.098;2022-10-16T12:23:02;41.45;;;26.23;;
17997;SDS011;9124;48.144;17.098;2022-10-16T12:26:42;24.38;;;17.80;;
17997;SDS011;9124;48.144;17.098;2022-10-16T12:30:29;50.72;;;34.50;;
17997;SDS011;9124;48.144;17.098;2022-10-16T12:34:14;23.02;;;17.98;;
17997;SDS011;9124;48.144;17.098;2022-10-16T12:38:28;19.60;;;16.88;;
17997;SDS011;9124;48.144;17.098;2022-10-16T12:49:48;21.73;;;17.48;;
17997;SDS011;9124;48.144;17.098;2022-10-16T12:53:27;22.10;;;16.95;;
17997;SDS011;9124;48.144;17.098;2022-10-16T12:57:17;22.23;;;17.10;;
17997;SDS011;9124;48.144;17.098;2022-10-16T13:09:33;20.23;;;16.17;;
17997;SDS011;9124;48.144;17.098;2022-10-16T13:25:26;19.00;;;15.18;;
17997;SDS011;9124;48.144;17.098;2022-10-16T13:29:42;20.95;;;15.10;;
17997;SDS011;9124;48.144;17.098;2022-10-16T13:37:19;18.90;;;15.63;;
17997;SDS011;9124;48.144;17.098;2022-10-16T13:41:01;20.23;;;15.93;;
17997;SDS011;9124;48.144;17.098;2022-10-16T13:44:48;22.52;;;15.60;;
17997;SDS011;9124;48.144;17.098;2022-10-16T13:48:26;31.15;;;21.38;;
17997;SDS011;9124;48.144;17.098;2022-10-16T13:52:03;17.70;;;14.77;;
17997;SDS011;9124;48.144;17.098;2022-10-16T13:55:39;16.17;;;14.45;;
17997;SDS011;9124;48.144;17.098;2022-10-16T13:59:23;17.42;;;14.30;;
17997;SDS011;9124;48.144;17.098;2022-10-16T14:03:01;17.55;;;14.05;;
17997;SDS011;9124;48.144;17.098;2022-10-16T14:06:41;17.25;;;14.38;;
17997;SDS011;9124;48.144;17.098;2022-10-16T14:10:25;18.85;;;14.68;;
17997;SDS011;9124;48.144;17.098;2022-10-16T14:14:05;20.48;;;14.27;;
17997;SDS011;9124;48.144;17.098;2022-10-16T14:17:47;15.77;;;14.00;;
17997;SDS011;9124;48.144;17.098;2022-10-16T14:21:26;16.48;;;14.27;;
17997;SDS011;9124;48.144;17.098;2022-10-16T14:29:12;16.92;;;13.20;;
17997;SDS011;9124;48.144;17.098;2022-10-16T14:33:51;16.92;;;13.43;;
17997;SDS011;9124;48.144;17.098;2022-10-16T14:36:59;13.65;;;12.40;;
17997;SDS011;9124;48.144;17.098;2022-10-16T14:40:46;16.33;;;12.80;;
17997;SDS011;9124;48.144;17.098;2022-10-16T14:44:32;13.55;;;12.35;;
17997;SDS011;9124;48.144;17.098;2022-10-16T14:48:14;13.98;;;12.57;;
17997;SDS011;9124;48.144;17.098;2022-10-16T14:51:54;16.75;;;13.70;;
17997;SDS011;9124;48.144;17.098;2022-10-16T14:55:31;14.40;;;12.40;;
17997;SDS011;9124;48.144;17.098;2022-10-16T14:59:08;14.18;;;12.73;;
17997;SDS011;9124;48.144;17.098;2022-10-16T15:03:03;17.23;;;13.07;;
17997;SDS011;9124;48.144;17.098;2022-10-16T15:06:39;17.35;;;12.63;;
17997;SDS011;9124;48.144;17.098;2022-10-16T15:10:17;14.68;;;12.95;;
17997;SDS011;9124;48.144;17.098;2022-10-16T15:13:54;16.23;;;13.32;;
17997;SDS011;9124;48.144;17.098;2022-10-16T15:17:30;15.23;;;12.65;;
17997;SDS011;9124;48.144;17.098;2022-10-16T15:21:07;16.85;;;13.00;;
17997;SDS011;9124;48.144;17.098;2022-10-16T15:24:45;14.88;;;13.40;;
17997;SDS011;9124;48.144;17.098;2022-10-16T15:28:22;14.35;;;12.48;;
17997;SDS011;9124;48.144;17.098;2022-10-16T15:31:59;16.17;;;12.48;;
17997;SDS011;9124;48.144;17.098;2022-10-16T15:35:36;14.23;;;12.82;;
17997;SDS011;9124;48.144;17.098;2022-10-16T15:39:17;14.48;;;12.82;;
17997;SDS011;9124;48.144;17.098;2022-10-16T15:42:54;13.80;;;12.32;;
17997;SDS011;9124;48.144;17.098;2022-10-16T15:46:31;15.18;;;12.85;;
17997;SDS011;9124;48.144;17.098;2022-10-16T15:50:10;13.73;;;12.35;;
17997;SDS011;9124;48.144;17.098;2022-10-16T15:53:48;13.35;;;11.90;;
17997;SDS011;9124;48.144;17.098;2022-10-16T15:57:27;12.55;;;11.25;;
17997;SDS011;9124;48.144;17.098;2022-10-16T16:01:05;16.42;;;10.98;;
17997;SDS011;9124;48.144;17.098;2022-10-16T16:04:42;12.43;;;11.13;;
17997;SDS011;9124;48.144;17.098;2022-10-16T16:08:18;12.05;;;10.95;;
17997;SDS011;9124;48.144;17.098;2022-10-16T16:11:55;12.88;;;10.13;;
17997;SDS011;9124;48.144;17.098;2022-10-16T16:15:31;11.50;;;10.30;;
17997;SDS011;9124;48.144;17.098;2022-10-16T16:19:07;11.85;;;10.60;;
17997;SDS011;9124;48.144;17.098;2022-10-16T16:22:45;12.18;;;10.35;;
17997;SDS011;9124;48.144;17.098;2022-10-16T16:26:25;13.63;;;10.77;;
17997;SDS011;9124;48.144;17.098;2022-10-16T16:30:09;10.40;;;9.27;;
17997;SDS011;9124;48.144;17.098;2022-10-16T16:33:46;13.40;;;10.93;;
17997;SDS011;9124;48.144;17.098;2022-10-16T16:37:23;11.20;;;9.27;;
17997;SDS011;9124;48.144;17.098;2022-10-16T16:40:59;16.40;;;10.73;;
17997;SDS011;9124;48.144;17.098;2022-10-16T16:44:50;16.40;;;11.32;;
17997;SDS011;9124;48.144;17.098;2022-10-16T16:48:26;10.80;;;9.70;;
17997;SDS011;9124;48.144;17.098;2022-10-16T16:52:02;12.57;;;10.95;;
17997;SDS011;9124;48.144;17.098;2022-10-16T16:55:38;10.45;;;9.45;;
17997;SDS011;9124;48.144;17.098;2022-10-16T16:59:16;10.45;;;9.48;;
17997;SDS011;9124;48.144;17.098;2022-10-16T17:02:55;11.30;;;10.15;;
17997;SDS011;9124;48.144;17.098;2022-10-16T17:06:32;10.70;;;9.60;;
17997;SDS011;9124;48.144;17.098;2022-10-16T17:10:08;13.90;;;10.05;;
17997;SDS011;9124;48.144;17.098;2022-10-16T17:13:45;14.68;;;10.55;;
17997;SDS011;9124;48.144;17.098;2022-10-16T17:17:21;11.70;;;9.75;;
17997;SDS011;9124;48.144;17.098;2022-10-16T17:20:58;10.90;;;9.90;;
17997;SDS011;9124;48.144;17.098;2022-10-16T17:24:39;12.68;;;10.98;;
17997;SDS011;9124;48.144;17.098;2022-10-16T17:28:16;11.88;;;10.45;;
17997;SDS011;9124;48.144;17.098;2022-10-16T17:31:52;11.45;;;10.35;;
17997;SDS011;9124;48.144;17.098;2022-10-16T17:35:44;12.57;;;11.20;;
17997;SDS011;9124;48.144;17.098;2022-10-16T17:39:21;18.33;;;11.70;;
17997;SDS011;9124;48.144;17.098;2022-10-16T17:42:58;13.10;;;11.45;;
17997;SDS011;9124;48.144;17.098;2022-10-16T17:46:34;12.32;;;10.52;;
17997;SDS011;9124;48.144;17.098;2022-10-16T17:50:11;14.75;;;11.48;;
17997;SDS011;9124;48.144;17.098;2022-10-16T17:53:48;15.60;;;11.93;;
17997;SDS011;9124;48.144;17.098;2022-10-16T17:57:25;12.75;;;11.48;;
17997;SDS011;9124;48.144;17.098;2022-10-16T18:01:03;11.90;;;10.45;;
17997;SDS011;9124;48.144;17.098;2022-10-16T18:04:51;12.25;;;11.02;;
17997;SDS011;9124;48.144;17.098;2022-10-16T18:08:27;12.15;;;10.90;;
17997;SDS011;9124;48.144;17.098;2022-10-16T18:12:03;13.02;;;10.07;;
17997;SDS011;9124;48.144;17.098;2022-10-16T18:15:40;14.10;;;11.90;;
17997;SDS011;9124;48.144;17.098;2022-10-16T18:19:17;16.00;;;11.18;;
17997;SDS011;9124;48.144;17.098;2022-10-16T18:22:54;16.63;;;10.50;;
17997;SDS011;9124;48.144;17.098;2022-10-16T18:26:30;12.05;;;10.90;;
17997;SDS011;9124;48.144;17.098;2022-10-16T18:30:08;12.25;;;10.63;;
17997;SDS011;9124;48.144;17.098;2022-10-16T18:33:44;14.10;;;11.13;;
17997;SDS011;9124;48.144;17.098;2022-10-16T18:37:25;12.68;;;11.40;;
17997;SDS011;9124;48.144;17.098;2022-10-16T18:41:02;16.88;;;10.93;;
17997;SDS011;9124;48.144;17.098;2022-10-16T18:44:40;16.30;;;11.15;;
17997;SDS011;9124;48.144;17.098;2022-10-16T18:48:16;12.90;;;10.98;;
17997;SDS011;9124;48.144;17.098;2022-10-16T18:51:53;15.00;;;10.75;;
17997;SDS011;9124;48.144;17.098;2022-10-16T18:55:31;12.23;;;10.20;;
17997;SDS011;9124;48.144;17.098;2022-10-16T18:59:08;15.07;;;10.80;;
17997;SDS011;9124;48.144;17.098;2022-10-16T19:02:45;12.10;;;10.00;;
17997;SDS011;9124;48.144;17.098;2022-10-16T19:06:21;13.15;;;10.60;;
17997;SDS011;9124;48.144;17.098;2022-10-16T19:09:58;14.75;;;11.23;;
17997;SDS011;9124;48.144;17.098;2022-10-16T19:13:34;14.20;;;11.30;;
17997;SDS011;9124;48.144;17.098;2022-10-16T19:17:11;15.20;;;11.32;;
17997;SDS011;9124;48.144;17.098;2022-10-16T19:20:47;13.68;;;11.65;;
17997;SDS011;9124;48.144;17.098;2022-10-16T19:24:23;15.45;;;11.95;;
17997;SDS011;9124;48.144;17.098;2022-10-16T19:28:00;13.27;;;11.45;;
17997;SDS011;9124;48.144;17.098;2022-10-16T19:31:41;14.70;;;12.57;;
17997;SDS011;9124;48.144;17.098;2022-10-16T19:35:18;19.83;;;14.23;;
17997;SDS011;9124;48.144;17.098;2022-10-16T19:39:04;15.98;;;13.35;;
17997;SDS011;9124;48.144;17.098;2022-10-16T19:42:52;21.67;;;13.02;;
17997;SDS011;9124;48.144;17.098;2022-10-16T19:46:29;19.23;;;13.80;;
17997;SDS011;9124;48.144;17.098;2022-10-16T19:50:06;17.42;;;13.25;;
17997;SDS011;9124;48.144;17.098;2022-10-16T19:53:44;17.83;;;12.18;;
17997;SDS011;9124;48.144;17.098;2022-10-16T19:57:22;16.27;;;12.15;;
17997;SDS011;9124;48.144;17.098;2022-10-16T20:00:59;18.70;;;12.57;;
17997;SDS011;9124;48.144;17.098;2022-10-16T20:04:35;17.35;;;12.38;;
17997;SDS011;9124;48.144;17.098;2022-10-16T20:08:11;20.58;;;12.38;;
17997;SDS011;9124;48.144;17.098;2022-10-16T20:11:48;17.65;;;12.88;;
17997;SDS011;9124;48.144;17.098;2022-10-16T20:15:24;13.18;;;11.38;;
17997;SDS011;9124;48.144;17.098;2022-10-16T20:19:01;14.55;;;11.50;;
17997;SDS011;9124;48.144;17.098;2022-10-16T20:22:38;15.68;;;11.70;;
17997;SDS011;9124;48.144;17.098;2022-10-16T20:26:15;14.75;;;11.77;;
17997;SDS011;9124;48.144;17.098;2022-10-16T20:29:53;18.48;;;11.38;;
17997;SDS011;9124;48.144;17.098;2022-10-16T20:33:29;16.23;;;11.48;;
17997;SDS011;9124;48.144;17.098;2022-10-16T20:37:06;17.63;;;11.43;;
17997;SDS011;9124;48.144;17.098;2022-10-16T20:40:43;15.27;;;11.05;;
17997;SDS011;9124;48.144;17.098;2022-10-16T20:44:21;17.58;;;11.50;;
17997;SDS011;9124;48.144;17.098;2022-10-16T20:47:57;13.40;;;11.27;;
17997;SDS011;9124;48.144;17.098;2022-10-16T20:51:33;15.35;;;10.82;;
17997;SDS011;9124;48.144;17.098;2022-10-16T20:55:09;14.25;;;9.95;;
17997;SDS011;9124;48.144;17.098;2022-10-16T20:58:46;16.75;;;11.27;;
17997;SDS011;9124;48.144;17.098;2022-10-16T21:02:23;13.75;;;11.30;;
17997;SDS011;9124;48.144;17.098;2022-10-16T21:06:00;13.23;;;10.77;;
17997;SDS011;9124;48.144;17.098;2022-10-16T21:09:40;15.18;;;10.73;;
17997;SDS011;9124;48.144;17.098;2022-10-16T21:13:16;11.43;;;10.13;;
17997;SDS011;9124;48.144;17.098;2022-10-16T21:16:52;11.30;;;9.60;;
17997;SDS011;9124;48.144;17.098;2022-10-16T21:20:29;14.77;;;9.88;;
17997;SDS011;9124;48.144;17.098;2022-10-16T21:24:06;11.20;;;10.00;;
17997;SDS011;9124;48.144;17.098;2022-10-16T21:27:42;13.70;;;9.65;;
17997;SDS011;9124;48.144;17.098;2022-10-16T21:31:19;11.15;;;9.93;;
17997;SDS011;9124;48.144;17.098;2022-10-16T21:34:57;11.43;;;9.70;;
17997;SDS011;9124;48.144;17.098;2022-10-16T21:38:33;16.27;;;9.68;;
17997;SDS011;9124;48.144;17.098;2022-10-16T21:42:09;13.38;;;10.98;;
17997;SDS011;9124;48.144;17.098;2022-10-16T21:45:45;14.55;;;10.20;;
17997;SDS011;9124;48.144;17.098;2022-10-16T21:49:22;10.85;;;9.50;;
17997;SDS011;9124;48.144;17.098;2022-10-16T21:52:58;15.50;;;11.75;;
17997;SDS011;9124;48.144;17.098;2022-10-16T21:56:34;11.82;;;10.63;;
17997;SDS011;9124;48.144;17.098;2022-10-16T22:00:11;10.80;;;9.70;;
17997;SDS011;9124;48.144;17.098;2022-10-16T22:03:48;11.23;;;9.70;;
17997;SDS011;9124;48.144;17.098;2022-10-16T22:07:24;10.02;;;9.07;;
17997;SDS011;9124;48.144;17.098;2022-10-16T22:11:02;11.50;;;9.68;;
17997;SDS011;9124;48.144;17.098;2022-10-16T22:14:46;16.30;;;9.77;;
17997;SDS011;9124;48.144;17.098;2022-10-16T22:18:22;12.65;;;8.75;;
17997;SDS011;9124;48.144;17.098;2022-10-16T22:21:59;9.38;;;8.40;;
17997;SDS011;9124;48.144;17.098;2022-10-16T22:25:35;9.98;;;8.30;;
17997;SDS011;9124;48.144;17.098;2022-10-16T22:29:12;12.30;;;8.48;;
17997;SDS011;9124;48.144;17.098;2022-10-16T22:32:50;8.73;;;7.88;;
17997;SDS011;9124;48.144;17.098;2022-10-16T22:36:26;9.32;;;8.43;;
17997;SDS011;9124;48.144;17.098;2022-10-16T22:40:03;10.95;;;8.40;;
17997;SDS011;9124;48.144;17.098;2022-10-16T22:43:41;8.93;;;8.00;;
17997;SDS011;9124;48.144;17.098;2022-10-16T22:47:19;9.43;;;8.57;;
17997;SDS011;9124;48.144;17.098;2022-10-16T22:50:55;9.18;;;8.25;;
17997;SDS011;9124;48.144;17.098;2022-10-16T22:54:32;9.00;;;8.23;;
17997;SDS011;9124;48.144;17.098;2022-10-16T22:58:08;11.05;;;8.10;;
17997;SDS011;9124;48.144;17.098;2022-10-16T23:01:44;10.25;;;8.35;;
17997;SDS011;9124;48.144;17.098;2022-10-16T23:05:21;10.93;;;8.65;;
17997;SDS011;9124;48.144;17.098;2022-10-16T23:08:58;10.68;;;8.30;;
17997;SDS011;9124;48.144;17.098;2022-10-16T23:12:36;9.13;;;8.32;;
17997;SDS011;9124;48.144;17.098;2022-10-16T23:16:13;9.18;;;8.27;;
17997;SDS011;9124;48.144;17.098;2022-10-16T23:19:51;10.35;;;8.73;;
17997;SDS011;9124;48.144;17.098;2022-10-16T23:23:28;9.40;;;8.13;;
17997;SDS011;9124;48.144;17.098;2022-10-16T23:27:04;10.38;;;8.23;;
17997;SDS011;9124;48.144;17.098;2022-10-16T23:30:40;11.50;;;8.57;;
17997;SDS011;9124;48.144;17.098;2022-10-16T23:34:16;9.30;;;8.27;;